Stena Europe — VSTA3 — position and weather

sailwx.info

Track history (hours):
 
Tides and Currents Weather Stations Pressure Air Temp Water Temp Dewpoint Dewpoint Depression Visibility Wind Speed Wind Dir Waves Ship Positions

Stena Europe

Operator: Stena Line

Last reported at 2018-May-23 03:00 UTC. Time now 2018-May-23 03:21 UTC.
Position N 52°15' W 006°20'.

Length 149 m; draft 6 m.

Type: Passenger vessel. MMSI: 235004539.

Date/timePositionNaut miles runAvg speedWind from/ knotsBaromVisibWave heightAir tempDewpointWater temp
2018-May-23 03:00N 52°15' W 006°20'4 8.1
2018-May-23 02:30N 52°14' W 006°14'815.8
2018-May-23 02:00N 52°12' W 006°01'814.4
2018-May-23 01:26N 52°10' W 005°49'3 0.5
2018-May-22 18:47N 52°12' W 005°52'516.7
2018-May-22 18:30N 52°13' W 005°60'816.6
2018-May-22 18:00N 52°14' W 006°13'4 9.0
2018-May-22 17:30N 52°15' W 006°20'0 0.0
2018-May-22 16:58N 52°15' W 006°20'0 0.0
2018-May-22 16:30N 52°15' W 006°20'0 0.0
2018-May-22 16:00N 52°15' W 006°20'0 0.4
2018-May-22 15:30N 52°16' W 006°20'815.4
2018-May-22 15:00N 52°13' W 006°08'917.3
2018-May-22 14:30N 52°11' W 005°55'917.1
2018-May-22 14:01N 52°10' W 005°41'10 1.6
2018-May-22 07:54N 52°12' W 005°57'616.3
2018-May-22 07:30N 52°13' W 006°07'816.9
2018-May-22 07:00N 52°16' W 006°20'0 0.6
2018-May-22 06:30N 52°15' W 006°20'0 0.0
2018-May-22 06:00N 52°15' W 006°20'0 0.0
2018-May-22 05:30N 52°15' W 006°20'0 0.0
2018-May-22 05:00N 52°15' W 006°20'0 0.0
2018-May-22 04:30N 52°15' W 006°20'0 0.0
2018-May-22 03:59N 52°15' W 006°20'0 0.0
2018-May-22 03:30N 52°15' W 006°20'0 0.0
2018-May-22 03:00N 52°15' W 006°20'0 0.0
2018-May-22 02:30N 52°15' W 006°20'4 8.6
2018-May-22 02:00N 52°14' W 006°14'917.4
2018-May-22 01:30N 52°12' W 005°60'611.4
2018-May-22 01:00N 52°13' W 005°50'4 0.7
2018-May-21 18:21N 52°12' W 005°57'618.1
2018-May-21 18:01N 52°13' W 006°07'917.4
2018-May-21 17:30N 52°16' W 006°20'0 0.6
2018-May-21 17:00N 52°15' W 006°20'0 0.0
2018-May-21 16:30N 52°15' W 006°20'0 0.0
2018-May-21 16:00N 52°15' W 006°20'0 0.0
2018-May-21 15:30N 52°15' W 006°20'3 5.2
2018-May-21 15:00N 52°15' W 006°16'918.3
2018-May-21 14:30N 52°12' W 006°01'1518.2
2018-May-21 13:39N 52°09' W 005°37'418.6
2018-May-21 13:28N 52°08' W 005°31'22 6.2
2018-May-21 09:57N 52°01' W 004°58'2917.3
2018-May-21 08:17N 52°09' W 005°43'518.5
2018-May-21 08:01N 52°11' W 005°51'918.7
2018-May-21 07:31N 52°13' W 006°06'918.3
2018-May-21 07:00N 52°16' W 006°20'0 0.6
2018-May-21 06:30N 52°15' W 006°20'0 0.0
2018-May-21 06:00N 52°15' W 006°20'0 0.0
2018-May-21 05:30N 52°15' W 006°20'0 0.0
2018-May-21 05:00N 52°15' W 006°20'0 0.0
2018-May-21 04:30N 52°15' W 006°20'0 0.0
2018-May-21 04:00N 52°15' W 006°20'0 0.0
2018-May-21 03:30N 52°15' W 006°20'0 0.0
2018-May-21 03:00N 52°15' W 006°20'4 8.0
2018-May-21 02:30N 52°14' W 006°14'916.7
2018-May-21 02:00N 52°12' W 006°00'713.7
2018-May-21 01:30N 52°10' W 005°50'713.2
2018-May-21 01:00N 52°09' W 005°39'713.3
2018-May-21 00:30N 52°07' W 005°29'713.0
2018-May-20 23:58N 52°06' W 005°18'612.8
2018-May-20 23:30N 52°04' W 005°08'9 2.2
2018-May-20 19:18N 52°06' W 005°23'918.1
2018-May-20 18:49N 52°07' W 005°37'618.5
2018-May-20 18:30N 52°09' W 005°46'918.5
2018-May-20 18:00N 52°12' W 006°00'918.5
2018-May-20 17:30N 52°14' W 006°15'3 6.6
2018-May-20 17:00N 52°15' W 006°20'0 0.0
2018-May-20 16:30N 52°15' W 006°20'0 0.0
2018-May-20 16:00N 52°15' W 006°20'0 0.0
2018-May-20 15:30N 52°15' W 006°20'1 1.4
2018-May-20 15:00N 52°16' W 006°19'917.7
2018-May-20 14:30N 52°13' W 006°06'1018.6
2018-May-20 13:59N 52°11' W 005°50'2318.5
2018-May-20 12:45N 52°05' W 005°14'10 3.8
2018-May-20 09:59N 52°02' W 004°58'1120.3
2018-May-20 09:27N 52°05' W 005°15'2619.1
2018-May-20 08:06N 52°11' W 005°56'218.8
2018-May-20 08:00N 52°12' W 005°58'918.8
2018-May-20 07:30N 52°14' W 006°13'4 8.5
2018-May-20 07:00N 52°15' W 006°20'0 0.0
2018-May-20 06:30N 52°15' W 006°20'0 0.0
2018-May-20 06:00N 52°15' W 006°20'0 0.0
2018-May-20 05:30N 52°15' W 006°20'0 0.0
2018-May-20 05:00N 52°15' W 006°20'0 0.0
2018-May-20 04:30N 52°15' W 006°20'0 0.0
2018-May-20 04:00N 52°15' W 006°20'0 0.0
2018-May-20 03:30N 52°15' W 006°20'0 0.0
2018-May-20 03:00N 52°15' W 006°20'4 7.6
2018-May-20 02:30N 52°14' W 006°14'815.3
2018-May-20 02:00N 52°12' W 006°02'713.8
2018-May-20 01:30N 52°11' W 005°51'4 0.6
2018-May-19 18:21N 52°10' W 005°45'718.9
2018-May-19 18:00N 52°12' W 005°55'918.8
2018-May-19 17:30N 52°14' W 006°10'612.6
2018-May-19 17:00N 52°15' W 006°20'0 0.0
2018-May-19 16:30N 52°15' W 006°20'0 0.0
2018-May-19 16:00N 52°15' W 006°20'0 0.0
2018-May-19 15:30N 52°15' W 006°20'0 0.4
2018-May-19 15:00N 52°15' W 006°20'816.0
2018-May-19 14:30N 52°14' W 006°08'1019.4
2018-May-19 14:00N 52°12' W 005°52'28 6.4
2018-May-19 09:37N 52°04' W 005°08'220.9
2018-May-19 09:30N 52°05' W 005°12'1120.3
2018-May-19 08:58N 52°07' W 005°29'919.5
2018-May-19 08:30N 52°10' W 005°43'1019.5
2018-May-19 08:00N 52°12' W 005°59'919.4
2018-May-19 07:31N 52°14' W 006°14'4 8.1
2018-May-19 07:00N 52°15' W 006°20'0 0.0
2018-May-19 06:30N 52°15' W 006°20'0 0.0
2018-May-19 06:00N 52°15' W 006°20'0 0.0
2018-May-19 05:30N 52°15' W 006°20'0 0.0
2018-May-19 05:00N 52°15' W 006°20'0 0.0
2018-May-19 04:30N 52°15' W 006°20'0 0.0
2018-May-19 04:00N 52°15' W 006°20'0 0.0
2018-May-19 03:30N 52°15' W 006°20'0 0.0
2018-May-19 03:00N 52°15' W 006°20'4 8.9
2018-May-19 02:31N 52°14' W 006°13'917.7
2018-May-19 02:00N 52°12' W 005°59'816.5
2018-May-19 01:30N 52°10' W 005°46'816.1
2018-May-19 01:00N 52°08' W 005°34'714.1
2018-May-19 00:31N 52°06' W 005°22'713.9
2018-May-19 00:00N 52°05' W 005°11'714.6
2018-May-18 23:30N 52°02' W 004°60'2 0.5
2018-May-18 19:50N 52°01' W 004°58'820.2
2018-May-18 19:26N 52°04' W 005°10'819.5
2018-May-18 19:00N 52°06' W 005°23'1019.2
2018-May-18 18:30N 52°09' W 005°39'919.0
2018-May-18 18:00N 52°11' W 005°54'1019.0
2018-May-18 17:30N 52°13' W 006°09'714.8
2018-May-18 17:01N 52°15' W 006°20'0 0.0
2018-May-18 16:30N 52°15' W 006°20'0 0.0
2018-May-18 16:00N 52°15' W 006°20'0 0.0
2018-May-18 15:30N 52°15' W 006°20'2 3.7
2018-May-18 15:00N 52°15' W 006°17'918.8
2018-May-18 14:30N 52°13' W 006°02'1019.6
2018-May-18 14:00N 52°11' W 005°47'919.0
2018-May-18 13:31N 52°08' W 005°32'1019.5
2018-May-18 13:01N 52°05' W 005°17'17 3.8
2018-May-18 08:34N 52°10' W 005°43'119.9
2018-May-18 08:30N 52°10' W 005°46'1019.7
2018-May-18 08:00N 52°13' W 006°01'1019.5
2018-May-18 07:30N 52°15' W 006°16'2 4.8
2018-May-18 07:00N 52°15' W 006°20'0 0.0
2018-May-18 06:30N 52°15' W 006°20'0 0.0
2018-May-18 06:00N 52°15' W 006°20'0 0.0
2018-May-18 05:29N 52°15' W 006°20'0 0.0
2018-May-18 05:00N 52°15' W 006°20'0 0.0
2018-May-18 04:30N 52°15' W 006°20'0 0.0
2018-May-18 04:00N 52°15' W 006°20'0 0.0
2018-May-18 03:30N 52°15' W 006°20'0 0.0
2018-May-18 03:00N 52°15' W 006°20'0 0.0
2018-May-18 02:30N 52°15' W 006°20'4 7.0
2018-May-18 02:00N 52°14' W 006°15'917.8
2018-May-18 01:30N 52°12' W 006°01'816.0
2018-May-18 01:00N 52°10' W 005°48'815.1
2018-May-18 00:30N 52°08' W 005°36'  
2018-May-15 17:56N 52°14' W 006°12'512.8
2018-May-15 17:30N 52°15' W 006°20'0 0.0
2018-May-15 17:00N 52°15' W 006°20'0 0.0
2018-May-15 16:30N 52°15' W 006°20'0 0.0
2018-May-15 16:00N 52°15' W 006°20'1 1.5
2018-May-15 15:30N 52°16' W 006°19'917.0
2018-May-15 15:00N 52°13' W 006°06'3 0.3
2018-May-15 07:44N 52°12' W 006°03'417.2
2018-May-15 07:31N 52°13' W 006°09'815.2
2018-May-15 07:00N 52°16' W 006°20'0 0.5
2018-May-15 06:30N 52°15' W 006°20'0 0.0
2018-May-15 06:01N 52°15' W 006°20'0 0.0
2018-May-15 05:30N 52°15' W 006°20'0 0.0
2018-May-15 05:01N 52°15' W 006°20'0 0.0
2018-May-15 04:31N 52°15' W 006°20'0 0.0
2018-May-15 04:01N 52°15' W 006°20'0 0.0
2018-May-15 03:31N 52°15' W 006°20'0 0.0
2018-May-15 03:00N 52°15' W 006°20'0 0.4
2018-May-15 02:30N 52°15' W 006°21'612.7
2018-May-15 02:01N 52°14' W 006°11'816.3
2018-May-15 01:31N 52°10' W 005°58'2 0.2
2018-May-14 17:55N 52°11' W 006°00'716.8
2018-May-14 17:30N 52°14' W 006°11'611.8
2018-May-14 17:00N 52°15' W 006°20'0 0.0
2018-May-14 16:30N 52°15' W 006°20'0 0.0
2018-May-14 16:00N 52°15' W 006°20'0 0.0
2018-May-14 15:30N 52°15' W 006°20'3 5.9
2018-May-14 15:00N 52°14' W 006°16'917.4
2018-May-14 14:30N 52°12' W 006°02'4 0.5
2018-May-14 07:29N 52°13' W 006°07'716.0
2018-May-14 07:00N 52°16' W 006°19'1 1.5
2018-May-14 06:30N 52°15' W 006°20'0 0.0
2018-May-14 06:00N 52°15' W 006°20'0 0.0
2018-May-14 05:30N 52°15' W 006°20'0 0.0
2018-May-14 05:00N 52°15' W 006°20'0 0.0
2018-May-14 04:30N 52°15' W 006°20'0 0.0
2018-May-14 04:00N 52°15' W 006°20'0 0.0
2018-May-14 03:30N 52°15' W 006°20'0 0.1
2018-May-14 03:00N 52°15' W 006°20'611.3
2018-May-14 02:30N 52°14' W 006°11'713.3
2018-May-14 02:00N 52°12' W 006°01'0 0.0
2018-May-13 17:45N 52°12' W 006°01'417.1
2018-May-13 17:30N 52°13' W 006°08'815.9
2018-May-13 17:01N 52°16' W 006°20'0 0.7
2018-May-13 16:30N 52°15' W 006°20'0 0.0
2018-May-13 16:00N 52°15' W 006°20'0 0.0
2018-May-13 15:30N 52°15' W 006°20'4 7.1
2018-May-13 15:00N 52°14' W 006°15'9 1.3
2018-May-13 07:41N 52°12' W 006°00'316.9
2018-May-13 07:30N 52°13' W 006°05'816.4
2018-May-13 07:00N 52°15' W 006°18'1 2.9
2018-May-13 06:30N 52°15' W 006°20'0 0.0
2018-May-13 06:00N 52°15' W 006°20'0 0.0
2018-May-13 05:30N 52°15' W 006°20'0 0.0
2018-May-13 05:00N 52°15' W 006°20'0 0.0
2018-May-13 04:30N 52°15' W 006°20'0 0.0
2018-May-13 04:00N 52°15' W 006°20'0 0.0
2018-May-13 03:30N 52°15' W 006°20'  
Track history (hours):
 
Tides and Currents Weather Stations Pressure Air Temp Water Temp Dewpoint Dewpoint Depression Visibility Wind Speed Wind Dir Waves Ship Positions

Stena Europe

Operator: Stena Line

Last reported at 2018-May-23 03:00 UTC. Time now 2018-May-23 03:21 UTC.
Position N 52°15' W 006°20'.

Length 149 m; draft 6 m.

Type: Passenger vessel. MMSI: 235004539.

Date/timePositionNaut miles runAvg speedWind from/ knotsBaromVisibWave heightAir tempDewpointWater temp
2018-May-23 03:00N 52°15' W 006°20'4 8.1
2018-May-23 02:30N 52°14' W 006°14'815.8
2018-May-23 02:00N 52°12' W 006°01'814.4
2018-May-23 01:26N 52°10' W 005°49'3 0.5
2018-May-22 18:47N 52°12' W 005°52'516.7
2018-May-22 18:30N 52°13' W 005°60'816.6
2018-May-22 18:00N 52°14' W 006°13'4 9.0
2018-May-22 17:30N 52°15' W 006°20'0 0.0
2018-May-22 16:58N 52°15' W 006°20'0 0.0
2018-May-22 16:30N 52°15' W 006°20'0 0.0
2018-May-22 16:00N 52°15' W 006°20'0 0.4
2018-May-22 15:30N 52°16' W 006°20'815.4
2018-May-22 15:00N 52°13' W 006°08'917.3
2018-May-22 14:30N 52°11' W 005°55'917.1
2018-May-22 14:01N 52°10' W 005°41'10 1.6
2018-May-22 07:54N 52°12' W 005°57'616.3
2018-May-22 07:30N 52°13' W 006°07'816.9
2018-May-22 07:00N 52°16' W 006°20'0 0.6
2018-May-22 06:30N 52°15' W 006°20'0 0.0
2018-May-22 06:00N 52°15' W 006°20'0 0.0
2018-May-22 05:30N 52°15' W 006°20'0 0.0
2018-May-22 05:00N 52°15' W 006°20'0 0.0
2018-May-22 04:30N 52°15' W 006°20'0 0.0
2018-May-22 03:59N 52°15' W 006°20'0 0.0
2018-May-22 03:30N 52°15' W 006°20'0 0.0
2018-May-22 03:00N 52°15' W 006°20'0 0.0
2018-May-22 02:30N 52°15' W 006°20'4 8.6
2018-May-22 02:00N 52°14' W 006°14'917.4
2018-May-22 01:30N 52°12' W 005°60'611.4
2018-May-22 01:00N 52°13' W 005°50'4 0.7
2018-May-21 18:21N 52°12' W 005°57'618.1
2018-May-21 18:01N 52°13' W 006°07'917.4
2018-May-21 17:30N 52°16' W 006°20'0 0.6
2018-May-21 17:00N 52°15' W 006°20'0 0.0
2018-May-21 16:30N 52°15' W 006°20'0 0.0
2018-May-21 16:00N 52°15' W 006°20'0 0.0
2018-May-21 15:30N 52°15' W 006°20'3 5.2
2018-May-21 15:00N 52°15' W 006°16'918.3
2018-May-21 14:30N 52°12' W 006°01'1518.2
2018-May-21 13:39N 52°09' W 005°37'418.6
2018-May-21 13:28N 52°08' W 005°31'22 6.2
2018-May-21 09:57N 52°01' W 004°58'2917.3
2018-May-21 08:17N 52°09' W 005°43'518.5
2018-May-21 08:01N 52°11' W 005°51'918.7
2018-May-21 07:31N 52°13' W 006°06'918.3
2018-May-21 07:00N 52°16' W 006°20'0 0.6
2018-May-21 06:30N 52°15' W 006°20'0 0.0
2018-May-21 06:00N 52°15' W 006°20'0 0.0
2018-May-21 05:30N 52°15' W 006°20'0 0.0
2018-May-21 05:00N 52°15' W 006°20'0 0.0
2018-May-21 04:30N 52°15' W 006°20'0 0.0
2018-May-21 04:00N 52°15' W 006°20'0 0.0
2018-May-21 03:30N 52°15' W 006°20'0 0.0
2018-May-21 03:00N 52°15' W 006°20'4 8.0
2018-May-21 02:30N 52°14' W 006°14'916.7
2018-May-21 02:00N 52°12' W 006°00'713.7
2018-May-21 01:30N 52°10' W 005°50'713.2
2018-May-21 01:00N 52°09' W 005°39'713.3
2018-May-21 00:30N 52°07' W 005°29'713.0
2018-May-20 23:58N 52°06' W 005°18'612.8
2018-May-20 23:30N 52°04' W 005°08'9 2.2
2018-May-20 19:18N 52°06' W 005°23'918.1
2018-May-20 18:49N 52°07' W 005°37'618.5
2018-May-20 18:30N 52°09' W 005°46'918.5
2018-May-20 18:00N 52°12' W 006°00'918.5
2018-May-20 17:30N 52°14' W 006°15'3 6.6
2018-May-20 17:00N 52°15' W 006°20'0 0.0
2018-May-20 16:30N 52°15' W 006°20'0 0.0
2018-May-20 16:00N 52°15' W 006°20'0 0.0
2018-May-20 15:30N 52°15' W 006°20'1 1.4
2018-May-20 15:00N 52°16' W 006°19'917.7
2018-May-20 14:30N 52°13' W 006°06'1018.6
2018-May-20 13:59N 52°11' W 005°50'2318.5
2018-May-20 12:45N 52°05' W 005°14'10 3.8
2018-May-20 09:59N 52°02' W 004°58'1120.3
2018-May-20 09:27N 52°05' W 005°15'2619.1
2018-May-20 08:06N 52°11' W 005°56'218.8
2018-May-20 08:00N 52°12' W 005°58'918.8
2018-May-20 07:30N 52°14' W 006°13'4 8.5
2018-May-20 07:00N 52°15' W 006°20'0 0.0
2018-May-20 06:30N 52°15' W 006°20'0 0.0
2018-May-20 06:00N 52°15' W 006°20'0 0.0
2018-May-20 05:30N 52°15' W 006°20'0 0.0
2018-May-20 05:00N 52°15' W 006°20'0 0.0
2018-May-20 04:30N 52°15' W 006°20'0 0.0
2018-May-20 04:00N 52°15' W 006°20'0 0.0
2018-May-20 03:30N 52°15' W 006°20'0 0.0
2018-May-20 03:00N 52°15' W 006°20'4 7.6
2018-May-20 02:30N 52°14' W 006°14'815.3
2018-May-20 02:00N 52°12' W 006°02'713.8
2018-May-20 01:30N 52°11' W 005°51'4 0.6
2018-May-19 18:21N 52°10' W 005°45'718.9
2018-May-19 18:00N 52°12' W 005°55'918.8
2018-May-19 17:30N 52°14' W 006°10'612.6
2018-May-19 17:00N 52°15' W 006°20'0 0.0
2018-May-19 16:30N 52°15' W 006°20'0 0.0
2018-May-19 16:00N 52°15' W 006°20'0 0.0
2018-May-19 15:30N 52°15' W 006°20'0 0.4
2018-May-19 15:00N 52°15' W 006°20'816.0
2018-May-19 14:30N 52°14' W 006°08'1019.4
2018-May-19 14:00N 52°12' W 005°52'28 6.4
2018-May-19 09:37N 52°04' W 005°08'220.9
2018-May-19 09:30N 52°05' W 005°12'1120.3
2018-May-19 08:58N 52°07' W 005°29'919.5
2018-May-19 08:30N 52°10' W 005°43'1019.5
2018-May-19 08:00N 52°12' W 005°59'919.4
2018-May-19 07:31N 52°14' W 006°14'4 8.1
2018-May-19 07:00N 52°15' W 006°20'0 0.0
2018-May-19 06:30N 52°15' W 006°20'0 0.0
2018-May-19 06:00N 52°15' W 006°20'0 0.0
2018-May-19 05:30N 52°15' W 006°20'0 0.0
2018-May-19 05:00N 52°15' W 006°20'0 0.0
2018-May-19 04:30N 52°15' W 006°20'0 0.0
2018-May-19 04:00N 52°15' W 006°20'0 0.0
2018-May-19 03:30N 52°15' W 006°20'0 0.0
2018-May-19 03:00N 52°15' W 006°20'4 8.9
2018-May-19 02:31N 52°14' W 006°13'917.7
2018-May-19 02:00N 52°12' W 005°59'816.5
2018-May-19 01:30N 52°10' W 005°46'816.1
2018-May-19 01:00N 52°08' W 005°34'714.1
2018-May-19 00:31N 52°06' W 005°22'713.9
2018-May-19 00:00N 52°05' W 005°11'714.6
2018-May-18 23:30N 52°02' W 004°60'2 0.5
2018-May-18 19:50N 52°01' W 004°58'820.2
2018-May-18 19:26N 52°04' W 005°10'819.5
2018-May-18 19:00N 52°06' W 005°23'1019.2
2018-May-18 18:30N 52°09' W 005°39'919.0
2018-May-18 18:00N 52°11' W 005°54'1019.0
2018-May-18 17:30N 52°13' W 006°09'714.8
2018-May-18 17:01N 52°15' W 006°20'0 0.0
2018-May-18 16:30N 52°15' W 006°20'0 0.0
2018-May-18 16:00N 52°15' W 006°20'0 0.0
2018-May-18 15:30N 52°15' W 006°20'2 3.7
2018-May-18 15:00N 52°15' W 006°17'918.8
2018-May-18 14:30N 52°13' W 006°02'1019.6
2018-May-18 14:00N 52°11' W 005°47'919.0
2018-May-18 13:31N 52°08' W 005°32'1019.5
2018-May-18 13:01N 52°05' W 005°17'17 3.8
2018-May-18 08:34N 52°10' W 005°43'119.9
2018-May-18 08:30N 52°10' W 005°46'1019.7
2018-May-18 08:00N 52°13' W 006°01'1019.5
2018-May-18 07:30N 52°15' W 006°16'2 4.8
2018-May-18 07:00N 52°15' W 006°20'0 0.0
2018-May-18 06:30N 52°15' W 006°20'0 0.0
2018-May-18 06:00N 52°15' W 006°20'0 0.0
2018-May-18 05:29N 52°15' W 006°20'0 0.0
2018-May-18 05:00N 52°15' W 006°20'0 0.0
2018-May-18 04:30N 52°15' W 006°20'0 0.0
2018-May-18 04:00N 52°15' W 006°20'0 0.0
2018-May-18 03:30N 52°15' W 006°20'0 0.0
2018-May-18 03:00N 52°15' W 006°20'0 0.0
2018-May-18 02:30N 52°15' W 006°20'4 7.0
2018-May-18 02:00N 52°14' W 006°15'917.8
2018-May-18 01:30N 52°12' W 006°01'816.0
2018-May-18 01:00N 52°10' W 005°48'815.1
2018-May-18 00:30N 52°08' W 005°36'  
2018-May-15 17:56N 52°14' W 006°12'512.8
2018-May-15 17:30N 52°15' W 006°20'0 0.0
2018-May-15 17:00N 52°15' W 006°20'0 0.0
2018-May-15 16:30N 52°15' W 006°20'0 0.0
2018-May-15 16:00N 52°15' W 006°20'1 1.5
2018-May-15 15:30N 52°16' W 006°19'917.0
2018-May-15 15:00N 52°13' W 006°06'3 0.3
2018-May-15 07:44N 52°12' W 006°03'417.2
2018-May-15 07:31N 52°13' W 006°09'815.2
2018-May-15 07:00N 52°16' W 006°20'0 0.5
2018-May-15 06:30N 52°15' W 006°20'0 0.0
2018-May-15 06:01N 52°15' W 006°20'0 0.0
2018-May-15 05:30N 52°15' W 006°20'0 0.0
2018-May-15 05:01N 52°15' W 006°20'0 0.0
2018-May-15 04:31N 52°15' W 006°20'0 0.0
2018-May-15 04:01N 52°15' W 006°20'0 0.0
2018-May-15 03:31N 52°15' W 006°20'0 0.0
2018-May-15 03:00N 52°15' W 006°20'0 0.4
2018-May-15 02:30N 52°15' W 006°21'612.7
2018-May-15 02:01N 52°14' W 006°11'816.3
2018-May-15 01:31N 52°10' W 005°58'2 0.2
2018-May-14 17:55N 52°11' W 006°00'716.8
2018-May-14 17:30N 52°14' W 006°11'611.8
2018-May-14 17:00N 52°15' W 006°20'0 0.0
2018-May-14 16:30N 52°15' W 006°20'0 0.0
2018-May-14 16:00N 52°15' W 006°20'0 0.0
2018-May-14 15:30N 52°15' W 006°20'3 5.9
2018-May-14 15:00N 52°14' W 006°16'917.4
2018-May-14 14:30N 52°12' W 006°02'4 0.5
2018-May-14 07:29N 52°13' W 006°07'716.0
2018-May-14 07:00N 52°16' W 006°19'1 1.5
2018-May-14 06:30N 52°15' W 006°20'0 0.0
2018-May-14 06:00N 52°15' W 006°20'0 0.0
2018-May-14 05:30N 52°15' W 006°20'0 0.0
2018-May-14 05:00N 52°15' W 006°20'0 0.0
2018-May-14 04:30N 52°15' W 006°20'0 0.0
2018-May-14 04:00N 52°15' W 006°20'0 0.0
2018-May-14 03:30N 52°15' W 006°20'0 0.1
2018-May-14 03:00N 52°15' W 006°20'611.3
2018-May-14 02:30N 52°14' W 006°11'713.3
2018-May-14 02:00N 52°12' W 006°01'0 0.0
2018-May-13 17:45N 52°12' W 006°01'417.1
2018-May-13 17:30N 52°13' W 006°08'815.9
2018-May-13 17:01N 52°16' W 006°20'0 0.7
2018-May-13 16:30N 52°15' W 006°20'0 0.0
2018-May-13 16:00N 52°15' W 006°20'0 0.0
2018-May-13 15:30N 52°15' W 006°20'4 7.1
2018-May-13 15:00N 52°14' W 006°15'9 1.3
2018-May-13 07:41N 52°12' W 006°00'316.9
2018-May-13 07:30N 52°13' W 006°05'816.4
2018-May-13 07:00N 52°15' W 006°18'1 2.9
2018-May-13 06:30N 52°15' W 006°20'0 0.0
2018-May-13 06:00N 52°15' W 006°20'0 0.0
2018-May-13 05:30N 52°15' W 006°20'0 0.0
2018-May-13 05:00N 52°15' W 006°20'0 0.0
2018-May-13 04:30N 52°15' W 006°20'0 0.0
2018-May-13 04:00N 52°15' W 006°20'0 0.0
2018-May-13 03:30N 52°15' W 006°20'  

Dump ship's entire track history